Alpine Light — V7UJ6 — position and weather

sailwx.info

Track history (hours):
 
Tides and Currents Weather Stations Pressure Air Temp Water Temp Dewpoint Dewpoint Depression Visibility Wind Speed Wind Dir Waves Ship Positions

Alpine Light

Last reported at 2018-Apr-02 19:41 UTC. Time now 2018-Apr-22 01:19 UTC.
Position N 25°01' E 122°33'.
Warning: this ship's position is 19 days out of date.

Length 183 m; draft 13 m.

Type: Tanker. MMSI: 538003962.

Date/timePositionNaut miles runAvg speedWind from/ knotsBaromVisibWave heightAir tempDewpointWater temp
2018-Apr-02 19:41N 25°01' E 122°33'314.3
2018-Apr-02 19:30N 24°59' E 122°32'713.8
2018-Apr-02 19:00N 24°52' E 122°30'713.6
2018-Apr-02 18:31N 24°46' E 122°27'713.9
2018-Apr-02 18:01N 24°39' E 122°25'713.3
2018-Apr-02 17:30N 24°33' E 122°23'713.6
2018-Apr-02 17:01N 24°26' E 122°21'713.0
2018-Apr-02 16:31N 24°20' E 122°18'713.3
2018-Apr-02 16:00N 24°14' E 122°16'713.2
2018-Apr-02 15:28N 24°07' E 122°14'912.9
2018-Apr-02 14:47N 23°59' E 122°11'1712.0
2018-Apr-02 13:19N 23°42' E 122°05'  
2018-Mar-27 06:07N 01°14' E 103°58'212.6
2018-Mar-27 05:58N 01°13' E 103°56'713.7
2018-Mar-27 05:29N 01°11' E 103°50'613.6
2018-Mar-27 05:01N 01°07' E 103°45'612.2
2018-Mar-27 04:30N 01°03' E 103°40'5 9.1
2018-Mar-27 03:56N 01°05' E 103°35'4 8.3
2018-Mar-27 03:31N 01°08' E 103°34'4 7.7
2018-Mar-27 02:59N 01°11' E 103°37'3 5.7
2018-Mar-27 02:30N 01°12' E 103°39'2 3.9
2018-Mar-27 01:58N 01°14' E 103°40'0 0.0
2018-Mar-27 01:22N 01°14' E 103°40'0 0.0
2018-Mar-27 00:43N 01°14' E 103°40'0 0.0
2018-Mar-26 23:43N 01°14' E 103°40'0 0.0
2018-Mar-26 23:19N 01°14' E 103°40'0 0.0
2018-Mar-26 22:52N 01°14' E 103°40'0 0.0
2018-Mar-26 21:01N 01°14' E 103°40'0 0.0
2018-Mar-26 20:52N 01°14' E 103°40'0 0.0
2018-Mar-26 20:22N 01°14' E 103°40'0 0.1
2018-Mar-26 19:58N 01°14' E 103°40'0 0.1
2018-Mar-26 19:22N 01°14' E 103°40'0 0.0
2018-Mar-26 18:49N 01°14' E 103°40'0 0.0
2018-Mar-26 18:28N 01°14' E 103°40'0 0.0
2018-Mar-26 17:58N 01°14' E 103°40'0 0.0
2018-Mar-26 16:46N 01°14' E 103°40'0 0.0
2018-Mar-26 16:19N 01°14' E 103°40'0 0.0
2018-Mar-26 15:58N 01°14' E 103°40'0 0.0
2018-Mar-26 15:28N 01°14' E 103°40'0 0.0
2018-Mar-26 14:46N 01°14' E 103°40'0 0.0
2018-Mar-26 14:13N 01°14' E 103°40'0 0.0
2018-Mar-26 12:55N 01°14' E 103°40'0 0.0
2018-Mar-26 12:25N 01°14' E 103°40'0 0.1
2018-Mar-26 11:34N 01°14' E 103°40'0 0.6
2018-Mar-26 11:28N 01°14' E 103°40'0 0.0
2018-Mar-26 10:58N 01°14' E 103°40'0 0.0
2018-Mar-26 10:28N 01°14' E 103°40'0 0.0
2018-Mar-26 09:34N 01°14' E 103°40'0 0.0
2018-Mar-26 09:19N 01°14' E 103°40'0 0.0
2018-Mar-26 08:46N 01°14' E 103°40'0 0.0
2018-Mar-26 08:28N 01°14' E 103°40'0 0.0
2018-Mar-26 07:55N 01°14' E 103°40'0 0.0
2018-Mar-26 07:28N 01°14' E 103°40'0 0.0
2018-Mar-26 06:58N 01°14' E 103°40'0 0.0
2018-Mar-26 06:28N 01°14' E 103°40'0 0.0
2018-Mar-26 05:58N 01°14' E 103°40'0 0.0
2018-Mar-26 05:28N 01°14' E 103°40'0 0.0
2018-Mar-26 04:49N 01°14' E 103°40'0 0.0
2018-Mar-26 04:25N 01°14' E 103°40'0 0.0
2018-Mar-26 03:58N 01°14' E 103°40'0 0.0
2018-Mar-26 03:28N 01°14' E 103°40'0 0.0
2018-Mar-26 02:46N 01°14' E 103°40'0 0.0
2018-Mar-26 02:28N 01°14' E 103°40'0 0.1
2018-Mar-26 01:55N 01°14' E 103°40'0 0.1
2018-Mar-26 01:25N 01°14' E 103°40'0 0.0
2018-Mar-26 00:52N 01°14' E 103°40'0 0.0
2018-Mar-26 00:28N 01°14' E 103°40'0 0.0
2018-Mar-25 23:58N 01°14' E 103°40'0 0.0
2018-Mar-25 23:28N 01°14' E 103°40'0 0.0
2018-Mar-25 22:55N 01°14' E 103°40'0 0.0
2018-Mar-25 22:25N 01°14' E 103°40'0 0.0
2018-Mar-25 21:58N 01°14' E 103°40'0 0.0
2018-Mar-25 21:25N 01°14' E 103°40'0 0.0
2018-Mar-25 20:55N 01°14' E 103°40'0 0.0
2018-Mar-25 20:28N 01°14' E 103°40'0 0.1
2018-Mar-25 19:58N 01°14' E 103°40'0 0.1
2018-Mar-25 19:28N 01°14' E 103°40'0 0.0
2018-Mar-25 18:58N 01°14' E 103°40'0 0.0
2018-Mar-25 18:16N 01°14' E 103°40'0 0.0
2018-Mar-25 17:58N 01°14' E 103°40'0 0.0
2018-Mar-25 17:22N 01°14' E 103°40'0 0.0
2018-Mar-25 16:55N 01°14' E 103°40'0 0.0
2018-Mar-25 16:25N 01°14' E 103°40'0 0.0
2018-Mar-25 15:43N 01°14' E 103°40'0 0.0
2018-Mar-25 15:28N 01°14' E 103°40'0 0.0
2018-Mar-25 14:55N 01°14' E 103°40'0 0.0
2018-Mar-25 14:25N 01°14' E 103°40'0 0.0
2018-Mar-25 13:46N 01°14' E 103°40'0 0.0
2018-Mar-25 13:16N 01°14' E 103°40'0 0.0
2018-Mar-25 12:55N 01°14' E 103°40'0 0.0
2018-Mar-25 12:25N 01°14' E 103°40'0 0.0
2018-Mar-25 11:58N 01°14' E 103°40'0 0.0
2018-Mar-25 11:22N 01°14' E 103°40'0 0.0
2018-Mar-25 10:52N 01°14' E 103°40'0 0.0
2018-Mar-25 10:19N 01°14' E 103°40'0 0.0
2018-Mar-25 09:40N 01°14' E 103°40'0 0.0
2018-Mar-25 09:25N 01°14' E 103°40'0 0.0
2018-Mar-25 08:55N 01°14' E 103°40'0 0.0
2018-Mar-25 07:46N 01°14' E 103°40'0 0.0
2018-Mar-25 07:10N 01°14' E 103°40'0 0.2
2018-Mar-25 06:55N 01°14' E 103°40'0 0.1
2018-Mar-25 06:28N 01°14' E 103°40'0 0.0
2018-Mar-25 05:55N 01°14' E 103°40'0 0.0
2018-Mar-25 05:28N 01°14' E 103°40'0 0.0
2018-Mar-25 04:58N 01°14' E 103°40'0 0.0
2018-Mar-25 04:28N 01°14' E 103°40'0 0.0
2018-Mar-25 03:55N 01°14' E 103°40'0 0.0
2018-Mar-25 03:10N 01°14' E 103°40'0 0.0
2018-Mar-25 02:46N 01°14' E 103°40'0 0.0
2018-Mar-25 02:25N 01°14' E 103°40'0 0.0
2018-Mar-25 01:55N 01°14' E 103°40'0 0.0
2018-Mar-25 01:25N 01°14' E 103°40'0 0.0
2018-Mar-25 00:49N 01°14' E 103°40'0 0.0
2018-Mar-25 00:22N 01°14' E 103°40'0 0.0
2018-Mar-24 23:58N 01°14' E 103°40'0 0.0
2018-Mar-24 23:22N 01°14' E 103°40'0 0.1
2018-Mar-24 22:58N 01°14' E 103°40'0 0.1
2018-Mar-24 22:28N 01°14' E 103°40'0 0.0
2018-Mar-24 21:55N 01°14' E 103°40'0 0.0
2018-Mar-24 21:19N 01°14' E 103°40'0 0.0
2018-Mar-24 20:52N 01°14' E 103°40'0 0.0
2018-Mar-24 19:43N 01°14' E 103°40'0 0.0
2018-Mar-24 19:16N 01°14' E 103°40'0 0.0
2018-Mar-24 18:55N 01°14' E 103°40'0 0.0
2018-Mar-24 18:22N 01°14' E 103°40'0 0.0
2018-Mar-24 17:58N 01°14' E 103°40'0 0.0
2018-Mar-24 16:40N 01°14' E 103°40'0 0.0
2018-Mar-24 16:28N 01°14' E 103°40'0 0.0
2018-Mar-24 15:58N 01°14' E 103°40'0 0.0
2018-Mar-24 15:25N 01°14' E 103°40'0 0.0
2018-Mar-24 14:52N 01°14' E 103°40'0 0.0
2018-Mar-24 14:13N 01°14' E 103°40'0 0.0
2018-Mar-24 13:46N 01°14' E 103°40'0 0.0
2018-Mar-24 13:25N 01°14' E 103°40'0 0.0
2018-Mar-24 12:01N 01°14' E 103°40'0 0.0
2018-Mar-24 11:55N 01°14' E 103°40'0 0.0
2018-Mar-24 11:25N 01°14' E 103°40'0 0.0
2018-Mar-24 10:58N 01°14' E 103°40'0 0.0
2018-Mar-24 10:30N 01°14' E 103°40'0 0.6
2018-Mar-24 09:59N 01°14' E 103°40'1 1.7
2018-Mar-24 09:30N 01°13' E 103°40'5 9.3
2018-Mar-24 09:00N 01°16' E 103°44'5 9.4
2018-Mar-24 08:30N 01°13' E 103°48'0 0.7
2018-Mar-24 07:52N 01°14' E 103°48'0 0.1
2018-Mar-24 07:28N 01°14' E 103°48'0 0.1
2018-Mar-24 06:58N 01°13' E 103°48'0 0.0
2018-Mar-24 06:25N 01°13' E 103°48'0 0.0
2018-Mar-24 05:55N 01°13' E 103°48'0 0.0
2018-Mar-24 05:22N 01°13' E 103°48'0 0.0
2018-Mar-24 04:55N 01°14' E 103°48'0 0.0
2018-Mar-24 04:28N 01°13' E 103°48'0 0.1
2018-Mar-24 03:55N 01°13' E 103°48'0 0.1
2018-Mar-24 03:28N 01°13' E 103°48'1 1.4
2018-Mar-24 03:00N 01°14' E 103°48'4 8.2
2018-Mar-24 02:31N 01°15' E 103°44'510.1
2018-Mar-24 02:00N 01°12' E 103°39'4 6.9
2018-Mar-24 01:29N 01°13' E 103°36'2 4.8
2018-Mar-24 00:58N 01°13' E 103°33'  
Track history (hours):
 
Tides and Currents Weather Stations Pressure Air Temp Water Temp Dewpoint Dewpoint Depression Visibility Wind Speed Wind Dir Waves Ship Positions

Alpine Light

Last reported at 2018-Apr-02 19:41 UTC. Time now 2018-Apr-22 01:19 UTC.
Position N 25°01' E 122°33'.
Warning: this ship's position is 19 days out of date.

Length 183 m; draft 13 m.

Type: Tanker. MMSI: 538003962.

Date/timePositionNaut miles runAvg speedWind from/ knotsBaromVisibWave heightAir tempDewpointWater temp
2018-Apr-02 19:41N 25°01' E 122°33'314.3
2018-Apr-02 19:30N 24°59' E 122°32'713.8
2018-Apr-02 19:00N 24°52' E 122°30'713.6
2018-Apr-02 18:31N 24°46' E 122°27'713.9
2018-Apr-02 18:01N 24°39' E 122°25'713.3
2018-Apr-02 17:30N 24°33' E 122°23'713.6
2018-Apr-02 17:01N 24°26' E 122°21'713.0
2018-Apr-02 16:31N 24°20' E 122°18'713.3
2018-Apr-02 16:00N 24°14' E 122°16'713.2
2018-Apr-02 15:28N 24°07' E 122°14'912.9
2018-Apr-02 14:47N 23°59' E 122°11'1712.0
2018-Apr-02 13:19N 23°42' E 122°05'  
2018-Mar-27 06:07N 01°14' E 103°58'212.6
2018-Mar-27 05:58N 01°13' E 103°56'713.7
2018-Mar-27 05:29N 01°11' E 103°50'613.6
2018-Mar-27 05:01N 01°07' E 103°45'612.2
2018-Mar-27 04:30N 01°03' E 103°40'5 9.1
2018-Mar-27 03:56N 01°05' E 103°35'4 8.3
2018-Mar-27 03:31N 01°08' E 103°34'4 7.7
2018-Mar-27 02:59N 01°11' E 103°37'3 5.7
2018-Mar-27 02:30N 01°12' E 103°39'2 3.9
2018-Mar-27 01:58N 01°14' E 103°40'0 0.0
2018-Mar-27 01:22N 01°14' E 103°40'0 0.0
2018-Mar-27 00:43N 01°14' E 103°40'0 0.0
2018-Mar-26 23:43N 01°14' E 103°40'0 0.0
2018-Mar-26 23:19N 01°14' E 103°40'0 0.0
2018-Mar-26 22:52N 01°14' E 103°40'0 0.0
2018-Mar-26 21:01N 01°14' E 103°40'0 0.0
2018-Mar-26 20:52N 01°14' E 103°40'0 0.0
2018-Mar-26 20:22N 01°14' E 103°40'0 0.1
2018-Mar-26 19:58N 01°14' E 103°40'0 0.1
2018-Mar-26 19:22N 01°14' E 103°40'0 0.0
2018-Mar-26 18:49N 01°14' E 103°40'0 0.0
2018-Mar-26 18:28N 01°14' E 103°40'0 0.0
2018-Mar-26 17:58N 01°14' E 103°40'0 0.0
2018-Mar-26 16:46N 01°14' E 103°40'0 0.0
2018-Mar-26 16:19N 01°14' E 103°40'0 0.0
2018-Mar-26 15:58N 01°14' E 103°40'0 0.0
2018-Mar-26 15:28N 01°14' E 103°40'0 0.0
2018-Mar-26 14:46N 01°14' E 103°40'0 0.0
2018-Mar-26 14:13N 01°14' E 103°40'0 0.0
2018-Mar-26 12:55N 01°14' E 103°40'0 0.0
2018-Mar-26 12:25N 01°14' E 103°40'0 0.1
2018-Mar-26 11:34N 01°14' E 103°40'0 0.6
2018-Mar-26 11:28N 01°14' E 103°40'0 0.0
2018-Mar-26 10:58N 01°14' E 103°40'0 0.0
2018-Mar-26 10:28N 01°14' E 103°40'0 0.0
2018-Mar-26 09:34N 01°14' E 103°40'0 0.0
2018-Mar-26 09:19N 01°14' E 103°40'0 0.0
2018-Mar-26 08:46N 01°14' E 103°40'0 0.0
2018-Mar-26 08:28N 01°14' E 103°40'0 0.0
2018-Mar-26 07:55N 01°14' E 103°40'0 0.0
2018-Mar-26 07:28N 01°14' E 103°40'0 0.0
2018-Mar-26 06:58N 01°14' E 103°40'0 0.0
2018-Mar-26 06:28N 01°14' E 103°40'0 0.0
2018-Mar-26 05:58N 01°14' E 103°40'0 0.0
2018-Mar-26 05:28N 01°14' E 103°40'0 0.0
2018-Mar-26 04:49N 01°14' E 103°40'0 0.0
2018-Mar-26 04:25N 01°14' E 103°40'0 0.0
2018-Mar-26 03:58N 01°14' E 103°40'0 0.0
2018-Mar-26 03:28N 01°14' E 103°40'0 0.0
2018-Mar-26 02:46N 01°14' E 103°40'0 0.0
2018-Mar-26 02:28N 01°14' E 103°40'0 0.1
2018-Mar-26 01:55N 01°14' E 103°40'0 0.1
2018-Mar-26 01:25N 01°14' E 103°40'0 0.0
2018-Mar-26 00:52N 01°14' E 103°40'0 0.0
2018-Mar-26 00:28N 01°14' E 103°40'0 0.0
2018-Mar-25 23:58N 01°14' E 103°40'0 0.0
2018-Mar-25 23:28N 01°14' E 103°40'0 0.0
2018-Mar-25 22:55N 01°14' E 103°40'0 0.0
2018-Mar-25 22:25N 01°14' E 103°40'0 0.0
2018-Mar-25 21:58N 01°14' E 103°40'0 0.0
2018-Mar-25 21:25N 01°14' E 103°40'0 0.0
2018-Mar-25 20:55N 01°14' E 103°40'0 0.0
2018-Mar-25 20:28N 01°14' E 103°40'0 0.1
2018-Mar-25 19:58N 01°14' E 103°40'0 0.1
2018-Mar-25 19:28N 01°14' E 103°40'0 0.0
2018-Mar-25 18:58N 01°14' E 103°40'0 0.0
2018-Mar-25 18:16N 01°14' E 103°40'0 0.0
2018-Mar-25 17:58N 01°14' E 103°40'0 0.0
2018-Mar-25 17:22N 01°14' E 103°40'0 0.0
2018-Mar-25 16:55N 01°14' E 103°40'0 0.0
2018-Mar-25 16:25N 01°14' E 103°40'0 0.0
2018-Mar-25 15:43N 01°14' E 103°40'0 0.0
2018-Mar-25 15:28N 01°14' E 103°40'0 0.0
2018-Mar-25 14:55N 01°14' E 103°40'0 0.0
2018-Mar-25 14:25N 01°14' E 103°40'0 0.0
2018-Mar-25 13:46N 01°14' E 103°40'0 0.0
2018-Mar-25 13:16N 01°14' E 103°40'0 0.0
2018-Mar-25 12:55N 01°14' E 103°40'0 0.0
2018-Mar-25 12:25N 01°14' E 103°40'0 0.0
2018-Mar-25 11:58N 01°14' E 103°40'0 0.0
2018-Mar-25 11:22N 01°14' E 103°40'0 0.0
2018-Mar-25 10:52N 01°14' E 103°40'0 0.0
2018-Mar-25 10:19N 01°14' E 103°40'0 0.0
2018-Mar-25 09:40N 01°14' E 103°40'0 0.0
2018-Mar-25 09:25N 01°14' E 103°40'0 0.0
2018-Mar-25 08:55N 01°14' E 103°40'0 0.0
2018-Mar-25 07:46N 01°14' E 103°40'0 0.0
2018-Mar-25 07:10N 01°14' E 103°40'0 0.2
2018-Mar-25 06:55N 01°14' E 103°40'0 0.1
2018-Mar-25 06:28N 01°14' E 103°40'0 0.0
2018-Mar-25 05:55N 01°14' E 103°40'0 0.0
2018-Mar-25 05:28N 01°14' E 103°40'0 0.0
2018-Mar-25 04:58N 01°14' E 103°40'0 0.0
2018-Mar-25 04:28N 01°14' E 103°40'0 0.0
2018-Mar-25 03:55N 01°14' E 103°40'0 0.0
2018-Mar-25 03:10N 01°14' E 103°40'0 0.0
2018-Mar-25 02:46N 01°14' E 103°40'0 0.0
2018-Mar-25 02:25N 01°14' E 103°40'0 0.0
2018-Mar-25 01:55N 01°14' E 103°40'0 0.0
2018-Mar-25 01:25N 01°14' E 103°40'0 0.0
2018-Mar-25 00:49N 01°14' E 103°40'0 0.0
2018-Mar-25 00:22N 01°14' E 103°40'0 0.0
2018-Mar-24 23:58N 01°14' E 103°40'0 0.0
2018-Mar-24 23:22N 01°14' E 103°40'0 0.1
2018-Mar-24 22:58N 01°14' E 103°40'0 0.1
2018-Mar-24 22:28N 01°14' E 103°40'0 0.0
2018-Mar-24 21:55N 01°14' E 103°40'0 0.0
2018-Mar-24 21:19N 01°14' E 103°40'0 0.0
2018-Mar-24 20:52N 01°14' E 103°40'0 0.0
2018-Mar-24 19:43N 01°14' E 103°40'0 0.0
2018-Mar-24 19:16N 01°14' E 103°40'0 0.0
2018-Mar-24 18:55N 01°14' E 103°40'0 0.0
2018-Mar-24 18:22N 01°14' E 103°40'0 0.0
2018-Mar-24 17:58N 01°14' E 103°40'0 0.0
2018-Mar-24 16:40N 01°14' E 103°40'0 0.0
2018-Mar-24 16:28N 01°14' E 103°40'0 0.0
2018-Mar-24 15:58N 01°14' E 103°40'0 0.0
2018-Mar-24 15:25N 01°14' E 103°40'0 0.0
2018-Mar-24 14:52N 01°14' E 103°40'0 0.0
2018-Mar-24 14:13N 01°14' E 103°40'0 0.0
2018-Mar-24 13:46N 01°14' E 103°40'0 0.0
2018-Mar-24 13:25N 01°14' E 103°40'0 0.0
2018-Mar-24 12:01N 01°14' E 103°40'0 0.0
2018-Mar-24 11:55N 01°14' E 103°40'0 0.0
2018-Mar-24 11:25N 01°14' E 103°40'0 0.0
2018-Mar-24 10:58N 01°14' E 103°40'0 0.0
2018-Mar-24 10:30N 01°14' E 103°40'0 0.6
2018-Mar-24 09:59N 01°14' E 103°40'1 1.7
2018-Mar-24 09:30N 01°13' E 103°40'5 9.3
2018-Mar-24 09:00N 01°16' E 103°44'5 9.4
2018-Mar-24 08:30N 01°13' E 103°48'0 0.7
2018-Mar-24 07:52N 01°14' E 103°48'0 0.1
2018-Mar-24 07:28N 01°14' E 103°48'0 0.1
2018-Mar-24 06:58N 01°13' E 103°48'0 0.0
2018-Mar-24 06:25N 01°13' E 103°48'0 0.0
2018-Mar-24 05:55N 01°13' E 103°48'0 0.0
2018-Mar-24 05:22N 01°13' E 103°48'0 0.0
2018-Mar-24 04:55N 01°14' E 103°48'0 0.0
2018-Mar-24 04:28N 01°13' E 103°48'0 0.1
2018-Mar-24 03:55N 01°13' E 103°48'0 0.1
2018-Mar-24 03:28N 01°13' E 103°48'1 1.4
2018-Mar-24 03:00N 01°14' E 103°48'4 8.2
2018-Mar-24 02:31N 01°15' E 103°44'510.1
2018-Mar-24 02:00N 01°12' E 103°39'4 6.9
2018-Mar-24 01:29N 01°13' E 103°36'2 4.8
2018-Mar-24 00:58N 01°13' E 103°33'  

Dump ship's entire track history